createdAt,value
2022-10-08T00:00:51.651Z,0
2022-10-08T00:15:51.586Z,0
2022-10-08T00:30:51.583Z,0
2022-10-08T00:45:51.578Z,0
2022-10-08T01:00:51.593Z,0
2022-10-08T01:15:51.463Z,0
2022-10-08T01:30:51.445Z,0
2022-10-08T01:45:51.513Z,0
2022-10-08T02:00:51.480Z,0
2022-10-08T02:15:51.379Z,0
2022-10-08T02:30:51.350Z,0
2022-10-08T02:45:51.434Z,0
2022-10-08T03:00:51.393Z,0
2022-10-08T03:15:51.281Z,0
2022-10-08T03:30:51.348Z,0
2022-10-08T03:45:51.268Z,0
2022-10-08T04:00:51.253Z,0
2022-10-08T04:15:51.242Z,0
2022-10-08T04:30:51.217Z,0
2022-10-08T04:45:51.192Z,0
2022-10-08T05:00:51.159Z,0
2022-10-08T05:15:51.168Z,0
2022-10-08T05:30:51.179Z,0
2022-10-08T05:45:51.108Z,0
2022-10-08T06:00:51.080Z,0
2022-10-08T06:15:51.107Z,0
2022-10-08T06:30:51.038Z,0
2022-10-08T06:45:51.009Z,0
2022-10-08T07:00:51.006Z,0
2022-10-08T07:15:51.024Z,0
2022-10-08T07:30:50.909Z,0
2022-10-08T07:45:50.960Z,0
2022-10-08T08:00:50.969Z,0
2022-10-08T08:15:50.845Z,1
2022-10-08T08:30:50.833Z,0
2022-10-08T08:45:50.835Z,0
2022-10-08T09:00:50.862Z,0
2022-10-08T09:15:50.762Z,0
2022-10-08T09:30:50.808Z,0
2022-10-08T09:45:50.731Z,0
2022-10-08T10:00:50.673Z,0
2022-10-08T10:15:50.654Z,0
2022-10-08T10:30:50.729Z,0
2022-10-08T10:45:50.675Z,0
2022-10-08T11:00:50.584Z,0
2022-10-08T11:15:50.630Z,0
2022-10-08T11:30:50.594Z,0
2022-10-08T11:45:50.568Z,0
2022-10-08T12:00:50.518Z,0
2022-10-08T12:15:50.517Z,0
2022-10-08T12:30:50.435Z,0
2022-10-08T12:45:50.415Z,0
2022-10-08T13:15:50.365Z,0
2022-10-08T13:30:50.339Z,0
2022-10-08T13:45:50.310Z,0
2022-10-08T14:00:50.703Z,0
2022-10-08T14:15:50.509Z,1
2022-10-08T14:30:50.239Z,2
2022-10-08T14:45:50.243Z,0
2022-10-08T15:00:50.231Z,0
2022-10-08T15:15:50.167Z,0
2022-10-08T15:30:50.175Z,1
2022-10-08T15:45:50.149Z,1
2022-10-08T16:00:50.163Z,0
2022-10-08T16:15:50.083Z,1
2022-10-08T16:30:50.132Z,0
2022-10-08T16:45:50.092Z,0
2022-10-08T17:00:50.056Z,43
2022-10-08T17:15:49.990Z,7
2022-10-08T17:30:50.135Z,88
2022-10-08T17:45:49.996Z,91
2022-10-08T18:00:50.751Z,66
2022-10-08T18:15:49.960Z,194
2022-10-08T18:30:49.928Z,222
2022-10-08T18:45:49.843Z,215
2022-10-08T19:00:49.842Z,129
2022-10-08T19:15:49.887Z,64
2022-10-08T19:30:49.825Z,227
2022-10-08T19:45:49.789Z,151
2022-10-08T20:00:49.754Z,154
2022-10-08T20:15:51.465Z,78
2022-10-08T20:30:49.709Z,79
2022-10-08T20:45:49.697Z,77
2022-10-08T21:00:49.681Z,206
2022-10-08T21:15:49.700Z,40
2022-10-08T21:30:49.608Z,14
2022-10-08T21:45:49.614Z,0
2022-10-08T22:00:49.611Z,10
2022-10-08T22:15:49.505Z,19
2022-10-08T22:30:49.518Z,7
2022-10-08T22:45:49.561Z,0
2022-10-08T23:00:49.483Z,0
2022-10-08T23:15:49.417Z,0
2022-10-08T23:30:49.432Z,0
2022-10-08T23:45:49.413Z,0
